createdAt,value
2019-03-23T00:00:08.847Z,44.17
2019-03-23T00:02:38.028Z,42.60
2019-03-23T00:05:08.370Z,43.83
2019-03-23T00:07:37.701Z,42.07
2019-03-23T00:10:25.070Z,42.97
2019-03-23T00:13:12.052Z,42.20
2019-03-23T00:15:41.209Z,42.33
2019-03-23T00:18:10.404Z,40.30
2019-03-23T00:20:39.606Z,41.87
2019-03-23T00:23:08.886Z,40.20
2019-03-23T00:25:38.096Z,38.97
2019-03-23T00:28:07.276Z,38.73
2019-03-23T00:30:36.474Z,37.80
2019-03-23T00:33:05.740Z,38.43
2019-03-23T00:35:34.941Z,38.47
2019-03-23T00:38:04.234Z,36.40
2019-03-23T00:40:33.431Z,40.07
2019-03-23T00:43:02.686Z,35.80
2019-03-23T00:45:33.541Z,36.00
2019-03-23T00:48:02.717Z,35.13
2019-03-23T00:50:31.928Z,35.13
2019-03-23T00:53:01.112Z,34.83
2019-03-23T00:55:30.368Z,33.53
2019-03-23T00:57:59.562Z,32.77
2019-03-23T01:00:28.745Z,32.83
2019-03-23T01:02:58.006Z,33.13
2019-03-23T01:05:27.200Z,32.40
2019-03-23T01:07:56.403Z,30.63
2019-03-23T01:10:25.603Z,31.43
2019-03-23T01:12:54.794Z,30.13
2019-03-23T01:15:24.008Z,31.13
2019-03-23T01:17:53.189Z,31.23
2019-03-23T01:20:22.387Z,31.27
2019-03-23T01:22:51.644Z,31.00
2019-03-23T01:25:20.980Z,47.93
2019-03-23T01:27:50.118Z,32.50
2019-03-23T01:30:19.392Z,32.33
2019-03-23T01:32:48.579Z,31.63
2019-03-23T01:35:17.778Z,30.03
2019-03-23T01:37:46.984Z,32.03
2019-03-23T01:40:16.157Z,30.40
2019-03-23T01:42:45.344Z,30.67
2019-03-23T01:45:14.798Z,30.23
2019-03-23T01:47:44.002Z,29.33
2019-03-23T01:50:13.742Z,29.07
2019-03-23T01:52:42.958Z,28.67
2019-03-23T01:55:12.912Z,29.60
2019-03-23T01:57:42.091Z,30.47
2019-03-23T02:00:13.451Z,30.27
2019-03-23T02:02:42.642Z,30.47
2019-03-23T02:05:11.932Z,31.43
2019-03-23T02:07:41.161Z,30.20
2019-03-23T02:10:11.971Z,30.87
2019-03-23T02:12:41.162Z,28.93
2019-03-23T02:15:13.630Z,29.83
2019-03-23T02:17:42.812Z,30.80
2019-03-23T02:20:13.046Z,29.40
2019-03-23T02:22:42.263Z,30.60
2019-03-23T02:25:11.635Z,29.70
2019-03-23T02:27:40.834Z,30.00
2019-03-23T02:30:11.371Z,30.73
2019-03-23T02:32:40.701Z,31.87
2019-03-23T02:35:10.624Z,30.77
2019-03-23T02:37:39.846Z,30.87
2019-03-23T02:40:10.390Z,31.23
2019-03-23T02:42:39.589Z,31.40
2019-03-23T02:45:10.920Z,30.90
2019-03-23T02:47:40.123Z,31.60
2019-03-23T02:50:10.454Z,31.30
2019-03-23T02:52:39.659Z,33.60
2019-03-23T02:55:10.056Z,34.03
2019-03-23T02:57:39.361Z,36.43
2019-03-23T03:00:12.203Z,33.40
2019-03-23T03:02:41.478Z,35.67
2019-03-23T03:05:11.304Z,35.47
2019-03-23T03:07:43.275Z,34.90
2019-03-23T03:10:14.493Z,36.80
2019-03-23T03:12:43.668Z,37.00
2019-03-23T03:15:12.995Z,38.07
2019-03-23T03:17:42.203Z,36.27
2019-03-23T03:20:11.536Z,37.60
2019-03-23T03:22:40.718Z,36.67
2019-03-23T03:25:10.114Z,35.77
2019-03-23T03:27:39.319Z,36.07
2019-03-23T03:30:11.163Z,35.87
2019-03-23T03:32:40.407Z,36.67
2019-03-23T03:35:10.027Z,36.10
2019-03-23T03:37:39.223Z,33.37
2019-03-23T03:40:09.252Z,35.03
2019-03-23T03:42:38.473Z,34.93
2019-03-23T03:45:09.820Z,34.27
2019-03-23T03:47:41.179Z,34.87
2019-03-23T03:50:11.035Z,32.83
2019-03-23T03:52:40.218Z,32.93
2019-03-23T03:55:09.876Z,34.43
2019-03-23T03:57:39.065Z,33.93
2019-03-23T04:00:09.693Z,33.00
2019-03-23T04:02:38.879Z,33.30
2019-03-23T04:05:09.101Z,33.53
2019-03-23T04:07:38.312Z,32.73
2019-03-23T04:10:08.405Z,34.43
2019-03-23T04:12:37.531Z,33.03
2019-03-23T04:15:08.673Z,32.80
2019-03-23T04:17:37.856Z,32.83
2019-03-23T04:20:08.283Z,33.03
2019-03-23T04:22:37.478Z,32.13
2019-03-23T04:25:10.777Z,32.47
2019-03-23T04:27:39.977Z,32.70
2019-03-23T04:30:11.339Z,33.33
2019-03-23T04:32:40.541Z,31.73
2019-03-23T04:35:10.156Z,31.93
2019-03-23T04:37:39.413Z,30.97
2019-03-23T04:40:11.008Z,30.07
2019-03-23T04:42:40.292Z,29.43
2019-03-23T04:45:10.906Z,28.50
2019-03-23T04:47:40.113Z,30.57
2019-03-23T04:50:11.054Z,29.37
2019-03-23T04:52:40.246Z,28.90
2019-03-23T04:55:13.183Z,29.83
2019-03-23T04:57:42.434Z,28.83
2019-03-23T05:00:17.432Z,29.13
2019-03-23T05:02:46.607Z,29.10
2019-03-23T05:05:15.865Z,30.60
2019-03-23T05:07:45.083Z,29.53
2019-03-23T05:10:14.398Z,29.93
2019-03-23T05:12:43.588Z,27.83
2019-03-23T05:15:12.926Z,28.57
2019-03-23T05:17:42.129Z,30.70
2019-03-23T05:20:15.210Z,29.87
2019-03-23T05:22:44.397Z,30.03
2019-03-23T05:25:25.448Z,29.90
2019-03-23T05:27:54.707Z,28.30
2019-03-23T05:30:23.908Z,29.17
2019-03-23T05:32:53.549Z,30.23
2019-03-23T05:35:22.760Z,30.43
2019-03-23T05:37:51.951Z,29.27
2019-03-23T05:40:21.155Z,28.60
2019-03-23T05:42:50.341Z,30.07
2019-03-23T05:45:19.533Z,29.60
2019-03-23T05:47:48.728Z,28.10
2019-03-23T05:50:17.907Z,29.70
2019-03-23T05:52:47.127Z,28.57
2019-03-23T05:55:16.292Z,27.47
2019-03-23T05:57:45.488Z,28.77
2019-03-23T06:00:16.389Z,27.37
2019-03-23T06:02:45.568Z,27.40
2019-03-23T06:05:14.843Z,27.53
2019-03-23T06:07:43.985Z,26.50
2019-03-23T06:10:13.357Z,25.30
2019-03-23T06:12:42.579Z,26.47
2019-03-23T06:15:11.926Z,26.80
2019-03-23T06:17:41.139Z,27.33
2019-03-23T06:20:10.673Z,26.77
2019-03-23T06:22:39.948Z,25.57
2019-03-23T06:25:09.390Z,27.03
2019-03-23T06:27:38.581Z,26.33
2019-03-23T06:30:10.661Z,27.80
2019-03-23T06:32:39.841Z,27.30
2019-03-23T06:35:09.310Z,25.47
2019-03-23T06:37:38.613Z,25.77
2019-03-23T06:40:10.062Z,25.77
2019-03-23T06:42:39.366Z,28.00
2019-03-23T06:45:11.221Z,26.73
2019-03-23T06:47:40.402Z,26.40
2019-03-23T06:50:11.327Z,26.77
2019-03-23T06:52:40.581Z,26.80
2019-03-23T06:55:10.479Z,25.27
2019-03-23T06:57:39.745Z,25.67
2019-03-23T07:00:14.644Z,26.83
2019-03-23T07:02:43.908Z,27.03
2019-03-23T07:05:14.045Z,27.93
2019-03-23T07:07:43.350Z,26.37
2019-03-23T07:10:13.813Z,26.83
2019-03-23T07:12:43.065Z,28.03
2019-03-23T07:15:19.780Z,27.50
2019-03-23T07:17:43.592Z,25.67
2019-03-23T07:20:14.616Z,26.27
2019-03-23T07:22:43.796Z,27.73
2019-03-23T07:25:13.205Z,26.97
2019-03-23T07:27:42.455Z,26.60
2019-03-23T07:30:14.658Z,27.83
2019-03-23T07:32:43.848Z,26.67
2019-03-23T07:35:14.188Z,28.70
2019-03-23T07:37:43.394Z,27.20
2019-03-23T07:40:13.542Z,27.27
2019-03-23T07:42:43.057Z,28.23
2019-03-23T07:45:14.038Z,29.47
2019-03-23T07:47:43.303Z,27.10
2019-03-23T07:50:13.857Z,27.47
2019-03-23T07:52:45.205Z,27.60
2019-03-23T07:55:16.405Z,28.30
2019-03-23T07:57:45.779Z,28.37
2019-03-23T08:00:21.541Z,26.57
2019-03-23T08:02:51.087Z,26.53
2019-03-23T08:05:20.288Z,27.90
2019-03-23T08:07:51.058Z,28.80
2019-03-23T08:10:31.301Z,27.17
2019-03-23T08:13:00.620Z,26.73
2019-03-23T08:15:30.286Z,26.63
2019-03-23T08:17:59.466Z,27.30
2019-03-23T08:20:28.808Z,25.80
2019-03-23T08:22:58.004Z,26.73
2019-03-23T08:25:27.285Z,25.70
2019-03-23T08:27:56.516Z,26.90
2019-03-23T08:30:25.784Z,25.13
2019-03-23T08:32:54.980Z,25.83
2019-03-23T08:35:24.205Z,24.33
2019-03-23T08:37:53.365Z,25.43
2019-03-23T08:40:22.567Z,25.30
2019-03-23T08:42:51.769Z,24.60
2019-03-23T08:45:20.967Z,25.17
2019-03-23T08:47:50.165Z,26.20
2019-03-23T08:50:19.363Z,24.00
2019-03-23T08:52:48.555Z,23.67
2019-03-23T08:55:17.785Z,24.83
2019-03-23T08:57:46.975Z,24.63
2019-03-23T09:00:16.240Z,23.97
2019-03-23T09:02:45.377Z,24.20
2019-03-23T09:05:14.670Z,23.83
2019-03-23T09:07:43.885Z,25.23
2019-03-23T09:10:13.175Z,24.23
2019-03-23T09:12:42.749Z,22.97
2019-03-23T09:15:12.101Z,21.63
2019-03-23T09:17:41.272Z,22.70
2019-03-23T09:20:11.731Z,24.23
2019-03-23T09:22:41.038Z,23.33
2019-03-23T09:25:10.351Z,25.53
2019-03-23T09:27:39.544Z,21.77
2019-03-23T09:30:10.974Z,24.17
2019-03-23T09:32:40.163Z,25.20
2019-03-23T09:35:09.649Z,22.83
2019-03-23T09:37:38.831Z,23.53
2019-03-23T09:40:11.069Z,24.37
2019-03-23T09:42:40.339Z,23.33
2019-03-23T09:45:09.855Z,24.00
2019-03-23T09:47:39.068Z,24.03
2019-03-23T09:50:10.100Z,23.53
2019-03-23T09:52:39.322Z,22.93
2019-03-23T09:55:08.651Z,22.47
2019-03-23T09:57:37.842Z,22.93
2019-03-23T10:00:09.191Z,23.70
2019-03-23T10:02:38.302Z,24.47
2019-03-23T10:05:07.947Z,25.13
2019-03-23T10:07:37.174Z,23.50
2019-03-23T10:10:07.495Z,24.13
2019-03-23T10:12:36.715Z,22.47
2019-03-23T10:15:07.327Z,21.40
2019-03-23T10:17:36.602Z,21.43
2019-03-23T10:20:06.744Z,21.77
2019-03-23T10:22:35.981Z,21.67
2019-03-23T10:25:08.314Z,21.10
2019-03-23T10:27:37.488Z,21.97
2019-03-23T10:30:08.142Z,22.47
2019-03-23T10:32:37.317Z,20.77
2019-03-23T10:35:08.049Z,19.93
2019-03-23T10:37:37.422Z,19.77
2019-03-23T10:40:08.463Z,19.77
2019-03-23T10:42:37.640Z,19.23
2019-03-23T10:45:11.544Z,19.53
2019-03-23T10:47:40.857Z,19.17
2019-03-23T10:50:10.246Z,18.27
2019-03-23T10:52:39.444Z,16.27
2019-03-23T10:55:08.876Z,16.33
2019-03-23T10:57:38.112Z,15.13
2019-03-23T11:00:10.151Z,14.13
2019-03-23T11:02:39.355Z,14.17
2019-03-23T11:05:08.780Z,13.33
2019-03-23T11:07:38.106Z,11.77
2019-03-23T11:10:12.335Z,11.03
2019-03-23T11:12:41.629Z,11.53
2019-03-23T11:15:11.444Z,9.20
2019-03-23T11:17:40.648Z,8.40
2019-03-23T11:20:12.385Z,8.70
2019-03-23T11:22:41.602Z,8.87
2019-03-23T11:25:11.840Z,8.20
2019-03-23T11:27:41.028Z,7.30
2019-03-23T11:30:13.124Z,8.10
2019-03-23T11:32:42.324Z,8.73
2019-03-23T11:35:11.727Z,7.97
2019-03-23T11:37:41.160Z,8.80
2019-03-23T11:40:11.751Z,7.30
2019-03-23T11:42:49.191Z,7.27
2019-03-23T11:45:12.661Z,5.80
2019-03-23T11:47:41.888Z,4.90
2019-03-23T11:50:12.120Z,6.30
2019-03-23T11:52:41.370Z,4.30
2019-03-23T11:55:10.808Z,4.13
2019-03-23T11:57:40.016Z,4.63
2019-03-23T12:00:12.477Z,4.37
2019-03-23T12:02:41.736Z,4.03
2019-03-23T12:05:11.369Z,4.00
2019-03-23T12:07:40.569Z,4.10
2019-03-23T12:10:13.832Z,5.37
2019-03-23T12:12:43.023Z,3.70
2019-03-23T12:15:13.860Z,4.73
2019-03-23T12:17:43.054Z,4.57
2019-03-23T12:20:13.269Z,4.63
2019-03-23T12:22:42.495Z,4.03
2019-03-23T12:25:11.971Z,4.07
2019-03-23T12:27:41.167Z,4.10
2019-03-23T12:30:13.377Z,4.43
2019-03-23T12:32:42.554Z,3.43
2019-03-23T12:35:12.681Z,3.93
2019-03-23T12:37:41.949Z,4.70
2019-03-23T12:40:11.610Z,3.70
2019-03-23T12:42:40.767Z,3.57
2019-03-23T12:45:11.105Z,4.13
2019-03-23T12:47:40.366Z,3.93
2019-03-23T12:50:11.218Z,3.13
2019-03-23T12:52:40.415Z,3.73
2019-03-23T12:55:09.848Z,4.23
2019-03-23T12:57:39.039Z,3.33
2019-03-23T13:00:11.616Z,3.20
2019-03-23T13:02:40.900Z,3.23
2019-03-23T13:05:10.342Z,3.30
2019-03-23T13:07:39.526Z,2.80
2019-03-23T13:10:11.781Z,2.67
2019-03-23T13:12:41.106Z,4.33
2019-03-23T13:15:12.824Z,3.97
2019-03-23T13:17:42.109Z,2.83
2019-03-23T13:20:12.207Z,3.23
2019-03-23T13:22:41.400Z,3.20
2019-03-23T13:25:10.952Z,3.63
2019-03-23T13:27:42.155Z,3.23
2019-03-23T13:30:17.632Z,2.60
2019-03-23T13:32:46.970Z,2.90
2019-03-23T13:35:16.168Z,2.60
2019-03-23T13:37:45.349Z,2.87
2019-03-23T13:40:14.566Z,2.53
2019-03-23T13:42:43.765Z,2.60
2019-03-23T13:45:13.601Z,2.90
2019-03-23T13:47:42.795Z,3.10
2019-03-23T13:50:12.405Z,3.23
2019-03-23T13:52:41.600Z,2.90
2019-03-23T13:55:13.826Z,2.87
2019-03-23T13:57:43.029Z,2.87
2019-03-23T14:00:12.657Z,3.20
2019-03-23T14:02:41.855Z,3.03
2019-03-23T14:05:16.137Z,3.33
2019-03-23T14:07:41.991Z,2.43
2019-03-23T14:10:11.266Z,3.17
2019-03-23T14:12:40.519Z,3.03
2019-03-23T14:15:10.044Z,3.87
2019-03-23T14:17:39.234Z,2.90
2019-03-23T14:20:08.568Z,3.30
2019-03-23T14:22:37.774Z,3.30
2019-03-23T14:25:07.412Z,3.70
2019-03-23T14:27:36.573Z,3.13
2019-03-23T14:30:07.867Z,3.53
2019-03-23T14:32:37.140Z,3.80
2019-03-23T14:35:07.185Z,3.87
2019-03-23T14:37:36.446Z,3.10
2019-03-23T14:40:06.849Z,3.70
2019-03-23T14:42:36.368Z,3.83
2019-03-23T14:45:07.297Z,3.67
2019-03-23T14:47:36.444Z,3.43
2019-03-23T14:50:07.392Z,3.30
2019-03-23T14:52:36.535Z,3.47
2019-03-23T14:55:07.281Z,3.50
2019-03-23T14:57:36.455Z,3.63
2019-03-23T15:00:09.623Z,3.63
2019-03-23T15:02:38.804Z,3.47
2019-03-23T15:05:09.134Z,3.03
2019-03-23T15:07:38.309Z,3.67
2019-03-23T15:10:09.542Z,3.50
2019-03-23T15:12:38.772Z,3.87
2019-03-23T15:15:08.982Z,3.73
2019-03-23T15:17:48.250Z,4.10
2019-03-23T15:20:09.378Z,3.80
2019-03-23T15:22:38.566Z,3.13
2019-03-23T15:25:08.181Z,3.03
2019-03-23T15:27:37.385Z,4.03
2019-03-23T15:30:08.299Z,2.97
2019-03-23T15:32:37.541Z,2.73
2019-03-23T15:35:07.563Z,3.07
2019-03-23T15:37:36.753Z,3.30
2019-03-23T15:40:07.538Z,2.77
2019-03-23T15:42:36.849Z,3.00
2019-03-23T15:45:08.151Z,3.33
2019-03-23T15:47:37.339Z,4.00
2019-03-23T15:50:07.409Z,3.90
2019-03-23T15:52:36.627Z,4.30
2019-03-23T15:55:06.265Z,4.40
2019-03-23T15:57:35.882Z,3.30
2019-03-23T16:00:09.983Z,4.00
2019-03-23T16:02:39.233Z,3.60
2019-03-23T16:05:09.093Z,3.67
2019-03-23T16:07:38.313Z,3.57
2019-03-23T16:10:08.515Z,3.27
2019-03-23T16:12:37.966Z,3.63
2019-03-23T16:15:13.825Z,4.07
2019-03-23T16:17:43.015Z,3.93
2019-03-23T16:20:13.063Z,3.77
2019-03-23T16:22:42.237Z,2.87
2019-03-23T16:25:11.867Z,3.70
2019-03-23T16:27:41.046Z,3.40
2019-03-23T16:30:11.890Z,3.83
2019-03-23T16:32:41.240Z,3.23
2019-03-23T16:35:11.163Z,3.60
2019-03-23T16:37:40.370Z,3.77
2019-03-23T16:40:10.098Z,3.33
2019-03-23T16:42:45.292Z,3.67
2019-03-23T16:45:10.913Z,3.87
2019-03-23T16:47:40.137Z,3.80
2019-03-23T16:50:10.156Z,3.77
2019-03-23T16:52:39.411Z,3.17
2019-03-23T16:55:10.528Z,3.47
2019-03-23T16:57:39.716Z,4.90
2019-03-23T17:00:14.602Z,3.90
2019-03-23T17:02:43.786Z,3.33
2019-03-23T17:05:14.714Z,4.10
2019-03-23T17:07:43.933Z,3.67
2019-03-23T17:10:13.192Z,4.67
2019-03-23T17:12:42.382Z,3.60
2019-03-23T17:15:11.957Z,3.87
2019-03-23T17:17:41.247Z,4.30
2019-03-23T17:20:10.762Z,2.77
2019-03-23T17:22:40.051Z,3.50
2019-03-23T17:25:09.987Z,3.20
2019-03-23T17:27:39.224Z,2.90
2019-03-23T17:30:09.146Z,3.60
2019-03-23T17:32:39.099Z,3.53
2019-03-23T17:35:08.755Z,4.47
2019-03-23T17:37:37.955Z,3.17
2019-03-23T17:40:08.265Z,2.80
2019-03-23T17:42:37.527Z,3.93
2019-03-23T17:45:10.084Z,3.90
2019-03-23T17:47:39.321Z,3.93
2019-03-23T17:50:10.116Z,3.83
2019-03-23T17:52:39.320Z,3.93
2019-03-23T17:55:08.725Z,3.80
2019-03-23T17:57:37.922Z,3.23
2019-03-23T18:00:09.330Z,4.30
2019-03-23T18:02:38.599Z,4.17
2019-03-23T18:05:08.711Z,3.43
2019-03-23T18:07:37.955Z,3.80
2019-03-23T18:10:07.970Z,4.23
2019-03-23T18:12:37.364Z,3.70
2019-03-23T18:15:08.423Z,3.60
2019-03-23T18:17:37.635Z,4.07
2019-03-23T18:20:07.450Z,4.03
2019-03-23T18:22:36.754Z,4.50
2019-03-23T18:25:07.187Z,3.43
2019-03-23T18:27:36.456Z,3.30
2019-03-23T18:30:08.976Z,3.97
2019-03-23T18:32:38.156Z,3.30
2019-03-23T18:35:07.743Z,3.70
2019-03-23T18:37:36.912Z,3.60
2019-03-23T18:40:08.278Z,3.53
2019-03-23T18:42:37.813Z,3.40
2019-03-23T18:45:07.137Z,3.90
2019-03-23T18:47:36.404Z,3.70
2019-03-23T18:50:07.735Z,4.23
2019-03-23T18:52:36.907Z,4.07
2019-03-23T18:55:07.657Z,4.43
2019-03-23T18:57:36.921Z,3.73
2019-03-23T19:00:07.817Z,3.93
2019-03-23T19:02:37.015Z,4.03
2019-03-23T19:05:06.512Z,4.47
2019-03-23T19:07:35.777Z,4.63
2019-03-23T19:10:06.648Z,4.97
2019-03-23T19:12:35.816Z,4.67
2019-03-23T19:15:06.846Z,4.00
2019-03-23T19:17:36.029Z,3.97
2019-03-23T19:20:07.000Z,4.23
2019-03-23T19:22:36.181Z,4.80
2019-03-23T19:25:15.894Z,3.53
2019-03-23T19:27:37.709Z,4.63
2019-03-23T19:30:07.933Z,4.33
2019-03-23T19:32:37.137Z,4.43
2019-03-23T19:35:07.160Z,4.83
2019-03-23T19:37:38.719Z,4.07
2019-03-23T19:40:07.801Z,4.30
2019-03-23T19:42:36.968Z,4.07
2019-03-23T19:45:09.627Z,4.07
2019-03-23T19:47:38.796Z,3.47
2019-03-23T19:50:09.250Z,3.63
2019-03-23T19:52:38.433Z,4.30
2019-03-23T19:55:08.257Z,4.03
2019-03-23T19:57:37.432Z,3.57
2019-03-23T20:00:08.572Z,4.00
2019-03-23T20:02:37.768Z,4.00
2019-03-23T20:05:07.295Z,4.43
2019-03-23T20:07:36.481Z,4.17
2019-03-23T20:10:08.139Z,4.27
2019-03-23T20:12:37.463Z,4.97
2019-03-23T20:15:08.765Z,4.47
2019-03-23T20:17:38.116Z,4.87
2019-03-23T20:20:09.334Z,4.50
2019-03-23T20:22:38.591Z,3.93
2019-03-23T20:25:08.224Z,4.53
2019-03-23T20:27:37.498Z,4.53
2019-03-23T20:30:10.026Z,4.20
2019-03-23T20:32:39.281Z,4.23
2019-03-23T20:35:09.093Z,4.77
2019-03-23T20:37:38.270Z,4.40
2019-03-23T20:40:09.585Z,4.90
2019-03-23T20:42:38.682Z,5.03
2019-03-23T20:45:09.628Z,6.27
2019-03-23T20:47:40.642Z,4.13
2019-03-23T20:50:10.836Z,4.40
2019-03-23T20:52:41.550Z,4.10
2019-03-23T20:55:28.614Z,5.30
2019-03-23T20:57:57.871Z,5.30
2019-03-23T21:00:27.196Z,4.70
2019-03-23T21:02:56.435Z,4.90
2019-03-23T21:05:33.939Z,4.73
2019-03-23T21:07:56.501Z,4.50
2019-03-23T21:10:25.734Z,4.23
2019-03-23T21:12:54.984Z,5.80
2019-03-23T21:15:24.151Z,5.10
2019-03-23T21:17:53.329Z,4.47
2019-03-23T21:20:22.502Z,5.20
2019-03-23T21:22:51.719Z,5.30
2019-03-23T21:25:20.913Z,4.80
2019-03-23T21:27:50.090Z,4.43
2019-03-23T21:30:21.624Z,4.40
2019-03-23T21:32:50.884Z,6.23
2019-03-23T21:35:20.084Z,5.47
2019-03-23T21:37:49.263Z,5.00
2019-03-23T21:40:18.439Z,5.30
2019-03-23T21:42:47.623Z,5.03
2019-03-23T21:45:16.947Z,5.63
2019-03-23T21:47:46.145Z,6.00
2019-03-23T21:50:15.655Z,5.60
2019-03-23T21:52:44.911Z,4.63
2019-03-23T21:55:14.759Z,5.43
2019-03-23T21:57:43.985Z,5.53
2019-03-23T22:00:14.741Z,5.20
2019-03-23T22:02:43.961Z,5.27
2019-03-23T22:05:13.303Z,4.50
2019-03-23T22:07:42.494Z,4.70
2019-03-23T22:10:11.948Z,4.53
2019-03-23T22:12:41.205Z,4.70
2019-03-23T22:15:10.524Z,5.57
2019-03-23T22:17:39.701Z,4.43
2019-03-23T22:20:09.144Z,5.03
2019-03-23T22:22:38.334Z,5.37
2019-03-23T22:25:08.077Z,5.37
2019-03-23T22:27:38.136Z,4.60
2019-03-23T22:30:12.568Z,6.40
2019-03-23T22:32:42.189Z,5.73
2019-03-23T22:35:11.625Z,4.27
2019-03-23T22:37:40.919Z,5.80
2019-03-23T22:40:12.242Z,4.90
2019-03-23T22:42:41.500Z,6.27
2019-03-23T22:45:10.974Z,5.30
2019-03-23T22:47:40.246Z,5.73
2019-03-23T22:50:10.254Z,5.17
2019-03-23T22:52:39.585Z,5.03
2019-03-23T22:55:09.981Z,5.20
2019-03-23T22:57:39.305Z,5.43
2019-03-23T23:00:15.878Z,5.63
2019-03-23T23:02:45.167Z,4.77
2019-03-23T23:05:14.544Z,5.23
2019-03-23T23:07:45.175Z,4.77
2019-03-23T23:10:14.985Z,5.20
2019-03-23T23:12:44.237Z,5.50
2019-03-23T23:15:14.092Z,4.67
2019-03-23T23:17:43.324Z,5.40
2019-03-23T23:20:12.554Z,5.53
2019-03-23T23:22:42.023Z,5.33
2019-03-23T23:25:11.524Z,5.33
2019-03-23T23:27:40.721Z,4.73
2019-03-23T23:30:11.807Z,5.03
2019-03-23T23:32:41.091Z,4.67
2019-03-23T23:35:11.419Z,4.53
2019-03-23T23:37:40.769Z,5.57
2019-03-23T23:40:10.377Z,5.37
2019-03-23T23:42:39.581Z,5.43
2019-03-23T23:45:15.469Z,5.07
2019-03-23T23:47:40.069Z,4.73
2019-03-23T23:50:10.124Z,5.37
2019-03-23T23:52:39.254Z,5.83
2019-03-23T23:55:08.674Z,5.80
2019-03-23T23:57:38.093Z,5.07
